Time;durP1;ratioP1;P1;durP2;ratioP2;P2;SDS_P1;SDS_P2;PMS_P1;PMS_P2;Temp;Humidity;BMP_temperature;BMP_pressure;BME280_temperature;BME280_humidity;BME280_pressure;Samples;Min_cycle;Max_cycle;Signal;HPM_P1;HPM_P2
2022/09/07 00:01:07;;;;;;;3.60;1.92;;;;;;;12.99;48.82;101309.24;1671077;85;21001;-74
2022/09/07 00:03:57;;;;;;;10.25;2.50;;;;;;;12.95;48.88;101307.57;1656176;85;21394;-75
2022/09/07 00:06:42;;;;;;;4.80;2.42;;;;;;;12.95;48.95;101299.78;1669445;85;21571;-74
2022/09/07 00:09:27;;;;;;;2.70;1.87;;;;;;;12.92;48.96;101307.17;1671837;85;22110;-75
2022/09/07 00:12:12;;;;;;;8.38;2.10;;;;;;;12.89;49.08;101307.22;1671202;85;21098;-74
2022/09/07 00:14:57;;;;;;;3.02;1.52;;;;;;;12.89;49.06;101298.14;1671968;84;21075;-74
2022/09/07 00:17:42;;;;;;;3.40;2.37;;;;;;;12.88;49.14;101300.31;1671534;84;21022;-74
2022/09/07 00:20:28;;;;;;;5.65;2.22;;;;;;;12.82;49.19;101293.91;1666498;84;21069;-74
2022/09/07 00:23:13;;;;;;;3.80;2.08;;;;;;;12.81;49.27;101293.49;1672049;84;21115;-74
2022/09/07 00:26:04;;;;;;;4.03;2.17;;;;;;;12.78;49.38;101300.88;1671116;84;21097;-74
2022/09/07 00:28:51;;;;;;;5.70;2.02;;;;;;;12.73;49.43;101302.68;1652614;84;21105;-74
2022/09/07 00:31:36;;;;;;;8.05;2.00;;;;;;;12.72;49.49;101297.07;1671509;84;21053;-74
2022/09/07 00:34:21;;;;;;;4.42;2.47;;;;;;;12.70;49.56;101288.89;1661673;84;21042;-74
2022/09/07 00:37:06;;;;;;;4.20;2.00;;;;;;;12.70;49.59;101286.30;1670165;85;21308;-74
2022/09/07 00:39:51;;;;;;;3.12;2.00;;;;;;;12.67;49.65;101285.90;1671682;84;21119;-75
2022/09/07 00:42:36;;;;;;;7.87;2.35;;;;;;;12.68;49.67;101291.95;1669824;85;21004;-75
2022/09/07 00:45:22;;;;;;;5.53;2.17;;;;;;;12.65;49.71;101289.39;1666830;84;21053;-75
2022/09/07 00:48:15;;;;;;;6.28;2.20;;;;;;;12.63;49.82;101284.66;1671672;84;21076;-74
2022/09/07 00:51:12;;;;;;;4.92;1.85;;;;;;;12.62;49.88;101288.14;1671398;85;21070;-75
2022/09/07 00:54:02;;;;;;;5.10;2.20;;;;;;;12.57;49.92;101291.65;1649802;85;20986;-73
2022/09/07 00:56:51;;;;;;;4.85;2.45;;;;;;;12.53;49.98;101297.76;1661085;85;21597;-74
2022/09/07 00:59:43;;;;;;;5.10;2.25;;;;;;;12.53;50.00;101295.60;1650219;85;20970;-74
2022/09/07 01:02:28;;;;;;;4.70;2.08;;;;;;;12.49;50.03;101298.67;1673533;84;20959;-74
2022/09/07 01:05:21;;;;;;;4.35;2.40;;;;;;;12.44;50.14;101296.61;1674169;84;20941;-74
2022/09/07 01:08:06;;;;;;;3.58;2.33;;;;;;;12.43;50.22;101294.03;1670012;84;21473;-74
2022/09/07 01:10:52;;;;;;;4.50;2.17;;;;;;;12.40;50.27;101294.93;1673977;85;20945;-74
2022/09/07 01:13:40;;;;;;;3.00;1.90;;;;;;;12.39;50.33;101289.77;1670775;84;21468;-74
2022/09/07 01:17:05;;;;;;;6.65;2.00;;;;;;;12.36;50.38;101294.55;1656302;84;21806;-74
2022/09/07 01:20:31;;;;;;;4.67;2.30;;;;;;;12.34;50.47;101291.55;1664332;84;20927;-74
2022/09/07 01:23:42;;;;;;;4.25;2.00;;;;;;;12.36;50.50;101286.77;1661993;85;20966;-74
2022/09/07 01:26:47;;;;;;;2.87;2.02;;;;;;;12.39;50.47;101286.73;1669092;84;20988;-74
2022/09/07 01:29:45;;;;;;;5.25;2.10;;;;;;;12.37;50.52;101284.59;1672938;83;20957;-74
2022/09/07 01:33:10;;;;;;;4.95;2.30;;;;;;;12.34;50.61;101283.34;1652228;84;20923;-73
2022/09/07 01:36:06;;;;;;;2.85;2.15;;;;;;;12.31;50.66;101280.78;1674319;84;20919;-74
2022/09/07 01:39:00;;;;;;;2.50;1.77;;;;;;;12.30;50.71;101277.77;1664618;84;20954;-74
2022/09/07 01:42:07;;;;;;;8.15;2.30;;;;;;;12.30;50.76;101269.12;1666207;84;20935;-74
2022/09/07 01:45:02;;;;;;;8.75;2.80;;;;;;;12.29;50.78;101263.09;1656974;85;20955;-74
2022/09/07 01:47:57;;;;;;;3.17;2.02;;;;;;;12.27;50.81;101263.55;1659150;84;20927;-74
2022/09/07 01:50:53;;;;;;;3.25;2.00;;;;;;;12.20;50.86;101260.17;1653507;84;20957;-74
2022/09/07 01:53:43;;;;;;;3.65;2.02;;;;;;;12.17;50.92;101255.02;1673610;84;21112;-74
2022/09/07 01:56:36;;;;;;;4.30;2.30;;;;;;;12.16;50.99;101257.63;1648953;84;21056;-74
2022/09/07 01:59:38;;;;;;;3.42;1.92;;;;;;;12.11;51.04;101254.23;1683684;84;21072;-74
2022/09/07 02:02:34;;;;;;;5.20;2.20;;;;;;;12.09;51.09;101262.03;1669071;85;21129;-74
2022/09/07 02:05:25;;;;;;;6.47;2.50;;;;;;;12.09;51.13;101259.88;1661895;84;21050;-74
2022/09/07 02:08:26;;;;;;;6.87;2.37;;;;;;;12.06;51.19;101263.36;1672062;84;20996;-74
2022/09/07 02:11:37;;;;;;;7.60;2.40;;;;;;;12.02;51.21;101264.70;1669655;84;21466;-74
2022/09/07 02:14:40;;;;;;;6.97;1.90;;;;;;;12.00;51.28;101265.16;1669694;84;21491;-74
2022/09/07 02:17:42;;;;;;;3.83;2.00;;;;;;;11.96;51.31;101261.75;1652141;85;20933;-74
2022/09/07 02:20:35;;;;;;;2.83;2.00;;;;;;;11.94;51.38;101257.05;1664220;85;20962;-74
2022/09/07 02:23:25;;;;;;;2.98;1.70;;;;;;;11.91;51.42;101259.23;1673796;85;20925;-74
2022/09/07 02:26:17;;;;;;;6.00;2.45;;;;;;;11.88;51.44;101259.27;1669084;85;20923;-74
2022/09/07 02:29:02;;;;;;;5.03;2.95;;;;;;;11.88;51.49;101265.75;1663551;85;20958;-74
2022/09/07 02:31:48;;;;;;;5.00;2.47;;;;;;;11.86;51.53;101261.02;1666675;84;20962;-74
2022/09/07 02:34:33;;;;;;;4.78;2.47;;;;;;;11.83;51.58;101262.34;1667474;85;22837;-74
2022/09/07 02:37:20;;;;;;;7.90;2.40;;;;;;;11.78;51.64;101261.54;1657111;83;21416;-74
2022/09/07 02:40:07;;;;;;;3.87;2.25;;;;;;;11.74;51.70;101263.70;1652321;84;20927;-74
2022/09/07 02:42:52;;;;;;;4.45;2.08;;;;;;;11.72;51.77;101255.53;1664322;84;21849;-74
2022/09/07 02:45:47;;;;;;;5.30;2.42;;;;;;;11.70;51.81;101247.77;1665616;84;21444;-74
2022/09/07 02:49:06;;;;;;;4.03;2.20;;;;;;;11.70;51.88;101249.50;1667332;84;20937;-74
2022/09/07 02:52:23;;;;;;;6.40;2.75;;;;;;;11.68;51.96;101258.59;1645068;86;20975;-74
2022/09/07 02:55:37;;;;;;;6.53;2.60;;;;;;;11.67;51.92;101263.34;1615756;87;21510;-74
2022/09/07 02:58:46;;;;;;;3.65;2.30;;;;;;;11.66;51.99;101260.77;1604894;88;21494;-74
2022/09/07 03:01:50;;;;;;;6.12;2.27;;;;;;;11.64;52.02;101264.67;1584427;88;21585;-74
2022/09/07 03:04:55;;;;;;;2.40;2.00;;;;;;;11.63;52.07;101264.25;1607420;88;20993;-74
2022/09/07 03:07:48;;;;;;;3.20;2.27;;;;;;;11.61;52.11;101262.97;1620252;87;20927;-74
2022/09/07 03:10:38;;;;;;;4.83;2.40;;;;;;;11.61;52.11;101263.41;1626289;87;20953;-74
2022/09/07 03:13:28;;;;;;;2.62;2.15;;;;;;;11.61;52.15;101258.23;1618305;85;20931;-74
2022/09/07 03:16:14;;;;;;;6.03;2.65;;;;;;;11.56;52.19;101250.50;1594106;87;20993;-74
2022/09/07 03:18:59;;;;;;;2.83;2.10;;;;;;;11.53;52.27;101257.00;1609000;87;20938;-74
2022/09/07 03:21:44;;;;;;;4.20;2.27;;;;;;;11.49;52.32;101246.69;1621702;87;21414;-74
2022/09/07 03:24:30;;;;;;;4.75;2.22;;;;;;;11.45;52.39;101254.92;1628621;87;20950;-74
2022/09/07 03:27:15;;;;;;;5.47;2.20;;;;;;;11.43;52.42;101254.11;1628032;88;20938;-74
2022/09/07 03:30:00;;;;;;;3.12;2.02;;;;;;;11.40;52.47;101257.16;1623377;87;20935;-74
2022/09/07 03:32:46;;;;;;;4.85;2.58;;;;;;;11.40;52.50;101257.16;1621748;87;20964;-74
2022/09/07 03:35:31;;;;;;;3.80;2.20;;;;;;;11.38;52.54;101253.30;1625529;88;21469;-74
2022/09/07 03:38:16;;;;;;;4.53;2.05;;;;;;;11.35;52.59;101249.88;1613510;87;20978;-74
2022/09/07 03:41:04;;;;;;;5.80;2.20;;;;;;;11.31;52.64;101246.45;1627407;87;20974;-74
2022/09/07 03:43:49;;;;;;;6.90;2.87;;;;;;;11.27;52.66;101244.33;1628785;86;20938;-74
2022/09/07 03:46:34;;;;;;;5.08;2.62;;;;;;;11.23;52.72;101241.34;1621387;87;20966;-74
2022/09/07 03:49:19;;;;;;;6.28;2.20;;;;;;;11.18;52.77;101236.64;1622931;86;20951;-74
2022/09/07 03:52:04;;;;;;;4.97;2.95;;;;;;;11.17;52.79;101236.21;1631541;85;20978;-74
2022/09/07 03:54:49;;;;;;;11.20;3.15;;;;;;;11.11;52.86;101240.14;1654982;84;20963;-74
2022/09/07 03:57:34;;;;;;;2.60;1.95;;;;;;;11.08;52.91;101238.02;1666681;84;20942;-74
2022/09/07 04:00:19;;;;;;;8.03;2.33;;;;;;;11.06;52.93;101234.58;1668044;84;21030;-74
2022/09/07 04:03:04;;;;;;;3.05;2.08;;;;;;;11.01;53.00;101235.91;1660686;84;21395;-74
2022/09/07 04:05:49;;;;;;;6.85;2.50;;;;;;;10.95;53.05;101239.84;1660496;84;22062;-74
2022/09/07 04:08:36;;;;;;;3.40;2.22;;;;;;;10.92;53.09;101241.16;1673028;84;21503;-74
2022/09/07 04:11:21;;;;;;;6.72;2.17;;;;;;;10.90;53.13;101239.05;1661891;84;20931;-74
2022/09/07 04:14:06;;;;;;;5.00;2.25;;;;;;;10.87;53.15;101233.45;1647599;84;20923;-74
2022/09/07 04:16:52;;;;;;;5.67;2.30;;;;;;;10.84;53.19;101234.77;1654464;84;37785;-74
2022/09/07 04:19:36;;;;;;;7.17;2.55;;;;;;;10.83;53.29;101229.17;1663194;84;21528;-74
2022/09/07 04:22:21;;;;;;;5.95;2.40;;;;;;;10.84;53.29;101239.09;1667197;84;20941;-74
2022/09/07 04:25:07;;;;;;;4.47;2.30;;;;;;;10.84;53.30;101242.53;1625474;86;20965;-74
2022/09/07 04:27:52;;;;;;;3.20;2.40;;;;;;;10.85;53.36;101245.98;1625364;86;20934;-74
2022/09/07 04:30:37;;;;;;;3.37;2.33;;;;;;;10.86;53.39;101243.38;1618978;87;21454;-74
2022/09/07 04:33:21;;;;;;;8.38;3.58;;;;;;;10.88;53.42;101240.34;1664528;85;20934;-74
2022/09/07 04:36:07;;;;;;;5.83;2.60;;;;;;;10.89;53.43;101237.33;1663204;85;20937;-74
2022/09/07 04:39:00;;;;;;;5.22;2.35;;;;;;;10.87;53.46;101237.34;1655365;84;21443;-74
2022/09/07 04:41:45;;;;;;;5.45;2.70;;;;;;;10.87;53.53;101224.84;1657195;85;20930;-74
2022/09/07 04:44:30;;;;;;;6.42;2.52;;;;;;;10.85;53.58;101218.38;1661011;84;20963;-74
2022/09/07 04:47:15;;;;;;;3.50;2.58;;;;;;;10.86;53.60;101216.22;1669175;83;21011;-74
2022/09/07 04:49:59;;;;;;;4.33;2.50;;;;;;;10.87;53.65;101210.61;1660810;84;21419;-74
2022/09/07 04:52:45;;;;;;;17.27;3.20;;;;;;;10.88;53.68;101201.98;1534535;84;10000988;-75
2022/09/07 04:55:31;;;;;;;3.92;2.70;;;;;;;10.90;53.71;101195.06;1656299;84;20986;-74
2022/09/07 04:58:15;;;;;;;5.15;2.40;;;;;;;10.94;53.72;101204.05;1656179;84;20940;-75
2022/09/07 05:01:06;;;;;;;11.25;2.80;;;;;;;10.97;53.73;101205.75;1653240;84;21006;-75
2022/09/07 05:03:51;;;;;;;5.83;2.40;;;;;;;10.97;53.79;101204.46;1661439;84;20961;-74
2022/09/07 05:06:36;;;;;;;14.35;3.08;;;;;;;10.98;53.89;101204.88;1649592;84;21723;-75
2022/09/07 05:09:21;;;;;;;7.80;2.70;;;;;;;11.02;53.97;101208.30;1666044;84;20978;-74
2022/09/07 05:12:06;;;;;;;20.70;2.90;;;;;;;11.09;53.96;101215.15;1661692;84;20975;-74
2022/09/07 05:14:51;;;;;;;6.50;2.45;;;;;;;11.16;54.00;101218.97;1654645;84;20974;-74
2022/09/07 05:17:36;;;;;;;11.63;3.33;;;;;;;11.23;54.01;101223.22;1648734;84;21869;-74
2022/09/07 05:20:21;;;;;;;10.15;2.98;;;;;;;11.32;54.03;101226.16;1667846;84;20972;-74
2022/09/07 05:23:06;;;;;;;4.85;2.55;;;;;;;11.44;54.07;101237.67;1660137;84;20911;-74
2022/09/07 05:25:50;;;;;;;6.47;2.25;;;;;;;11.58;54.12;101236.24;1668453;85;21483;-74
2022/09/07 05:28:37;;;;;;;5.35;2.62;;;;;;;11.70;54.13;101237.84;1654528;84;21455;-74
2022/09/07 05:31:23;;;;;;;23.25;3.05;;;;;;;11.80;54.11;101226.55;1623832;86;20970;-74
2022/09/07 05:34:08;;;;;;;6.00;2.30;;;;;;;11.88;54.13;101220.84;1658131;84;453110;-74
2022/09/07 05:36:53;;;;;;;6.03;2.30;;;;;;;11.96;54.15;101220.28;1652694;85;21772;-74
2022/09/07 05:39:37;;;;;;;4.83;1.82;;;;;;;12.05;54.21;101220.61;1647364;85;21006;-74
2022/09/07 05:42:22;;;;;;;8.43;2.70;;;;;;;12.12;54.17;101217.06;1656146;85;22108;-74
2022/09/07 05:50:38;;;;;;;6.55;2.33;;;;;;;12.53;54.21;101216.04;1656393;81;21079;-72
2022/09/07 05:53:23;;;;;;;5.22;2.22;;;;;;;12.72;54.22;101219.66;1671507;84;21495;-72
2022/09/07 05:56:09;;;;;;;4.30;2.22;;;;;;;12.91;54.18;101216.77;1683405;84;21103;-72
2022/09/07 05:58:55;;;;;;;9.30;2.65;;;;;;;13.14;54.19;101220.25;1660719;86;27275;-72
2022/09/07 06:01:40;;;;;;;6.05;2.22;;;;;;;13.37;54.19;101215.14;1686353;83;21826;-72
2022/09/07 06:04:25;;;;;;;9.45;2.72;;;;;;;13.70;54.22;101213.64;1697621;83;21061;-72
2022/09/07 06:07:14;;;;;;;3.12;2.08;;;;;;;14.05;54.13;101215.06;1701619;82;21056;-72
2022/09/07 06:09:59;;;;;;;4.15;1.77;;;;;;;14.47;54.10;101212.02;1685691;82;21070;-72
2022/09/07 06:12:45;;;;;;;5.08;1.92;;;;;;;14.89;54.06;101211.89;1697195;84;21071;-72
2022/09/07 06:15:33;;;;;;;4.08;1.80;;;;;;;15.28;53.96;101206.11;1688699;84;21133;-72
2022/09/07 06:18:18;;;;;;;6.70;2.27;;;;;;;15.87;53.83;101206.25;1693221;83;21108;-72
2022/09/07 06:21:10;;;;;;;3.52;1.70;;;;;;;16.59;53.59;101212.77;1683305;83;21346;-72
2022/09/07 06:23:55;;;;;;;4.25;2.20;;;;;;;17.22;53.63;101210.25;1688570;83;21504;-72
2022/09/07 06:26:40;;;;;;;7.28;1.80;;;;;;;17.79;52.61;101210.43;1681787;83;21100;-72
2022/09/07 06:29:30;;;;;;;4.30;1.80;;;;;;;18.44;52.99;101205.77;1683409;83;21501;-72
2022/09/07 06:32:15;;;;;;;3.25;1.95;;;;;;;19.21;52.77;101203.52;1675527;84;21064;-72
2022/09/07 06:35:00;;;;;;;3.25;2.30;;;;;;;19.91;52.61;101195.16;1681504;84;21137;-72
2022/09/07 06:37:45;;;;;;;3.30;1.87;;;;;;;20.58;52.19;101195.95;1688981;83;21073;-72
2022/09/07 06:40:33;;;;;;;3.37;2.25;;;;;;;20.94;51.25;101191.50;1678646;84;21104;-72
2022/09/07 06:43:18;;;;;;;2.20;2.00;;;;;;;21.44;51.53;101192.88;1691948;84;20973;-72
2022/09/07 06:46:04;;;;;;;3.02;2.37;;;;;;;22.20;51.24;101197.16;1683282;83;20926;-72
2022/09/07 06:48:53;;;;;;;7.75;2.30;;;;;;;22.47;50.56;101200.02;1682660;83;21304;-72
2022/09/07 06:51:38;;;;;;;4.65;2.25;;;;;;;22.81;50.35;101204.27;1687673;83;20991;-72
2022/09/07 06:54:23;;;;;;;2.37;1.90;;;;;;;23.33;50.29;101211.74;1662425;85;20926;-72
2022/09/07 06:57:08;;;;;;;3.20;2.00;;;;;;;24.02;49.78;101206.56;1691790;83;20901;-72
2022/09/07 06:59:53;;;;;;;6.03;2.02;;;;;;;24.66;49.32;101204.25;1671110;84;20956;-72
2022/09/07 07:02:38;;;;;;;7.35;1.98;;;;;;;25.05;48.83;101207.38;1690326;83;21021;-72
2022/09/07 07:05:22;;;;;;;4.60;1.80;;;;;;;25.47;48.69;101211.56;1650995;83;21419;-72
2022/09/07 07:08:08;;;;;;;4.40;1.98;;;;;;;25.89;47.96;101210.87;1665694;82;21105;-72
2022/09/07 07:10:53;;;;;;;4.58;2.10;;;;;;;26.50;48.04;101207.80;1676055;84;21080;-72
2022/09/07 07:13:41;;;;;;;2.03;1.90;;;;;;;26.97;47.47;101204.27;1670398;84;21106;-72
2022/09/07 07:16:26;;;;;;;4.12;2.40;;;;;;;27.32;46.71;101209.05;1660960;84;21094;-72
2022/09/07 07:19:11;;;;;;;7.65;2.15;;;;;;;27.36;45.79;101207.85;1664947;84;21163;-72
2022/09/07 07:21:56;;;;;;;5.45;1.90;;;;;;;27.68;45.62;101206.69;1662727;84;21043;-72
2022/09/07 07:24:41;;;;;;;8.08;2.22;;;;;;;28.23;45.12;101202.30;1684049;83;21056;-72
2022/09/07 07:27:30;;;;;;;4.53;1.82;;;;;;;28.62;44.29;101205.32;1686391;83;21034;-72
2022/09/07 07:30:17;;;;;;;3.27;1.87;;;;;;;28.74;44.25;101204.31;1694201;84;21095;-72
2022/09/07 07:33:03;;;;;;;4.87;2.00;;;;;;;29.10;43.34;101206.23;1694147;84;21091;-74
2022/09/07 07:35:48;;;;;;;2.62;1.85;;;;;;;29.35;42.72;101212.95;1693069;84;21738;-72
2022/09/07 07:38:33;;;;;;;7.33;2.00;;;;;;;29.62;42.00;101206.63;1677383;85;21105;-72
2022/09/07 07:41:22;;;;;;;3.87;2.30;;;;;;;29.02;40.27;101210.03;1665815;85;21069;-72
2022/09/07 07:44:08;;;;;;;5.20;2.12;;;;;;;28.84;41.04;101205.75;1672682;83;21615;-72
2022/09/07 07:46:53;;;;;;;;;;;;;;;28.66;39.58;101203.61;1690974;84;21042;-72
2022/09/07 07:49:38;;;;;;;6.85;2.37;;;;;;;27.96;39.70;101201.86;1689190;84;20250;-72
2022/09/07 07:52:23;;;;;;;8.55;2.65;;;;;;;27.41;39.39;101202.19;1683875;83;21128;-72
2022/09/07 07:55:08;;;;;;;8.08;2.05;;;;;;;27.16;39.46;101207.20;1681778;85;22097;-72
2022/09/07 07:57:53;;;;;;;5.33;2.40;;;;;;;27.20;39.32;101204.67;1676926;83;21579;-72
2022/09/07 08:00:39;;;;;;;4.42;2.33;;;;;;;27.98;38.33;101199.44;1676854;85;21060;-72
2022/09/07 08:03:24;;;;;;;4.97;2.37;;;;;;;28.26;37.76;101195.41;1678035;83;21048;-72
2022/09/07 08:06:14;;;;;;;4.58;2.87;;;;;;;29.08;37.17;101201.52;1672643;83;21074;-72
2022/09/07 08:08:59;;;;;;;4.78;2.20;;;;;;;29.58;36.63;101199.87;1672697;85;21159;-72
2022/09/07 08:11:45;;;;;;;9.35;2.30;;;;;;;29.96;36.32;101205.33;1692544;84;21587;-72
2022/09/07 08:14:30;;;;;;;3.40;2.92;;;;;;;30.52;36.01;101199.91;1689177;84;21638;-72
2022/09/07 08:17:16;;;;;;;3.58;2.30;;;;;;;31.05;35.79;101204.34;1670669;85;21065;-72
2022/09/07 08:20:02;;;;;;;3.02;2.50;;;;;;;31.60;35.30;101202.67;1693319;84;21519;-72
2022/09/07 08:22:49;;;;;;;6.47;2.22;;;;;;;31.93;35.14;101199.92;1686399;84;21045;-72
2022/09/07 08:25:35;;;;;;;5.35;2.52;;;;;;;32.22;34.64;101194.44;1675418;85;22171;-72
2022/09/07 08:28:22;;;;;;;2.98;2.27;;;;;;;32.37;33.90;101198.75;1690706;84;21649;-73
2022/09/07 08:31:11;;;;;;;4.10;2.65;;;;;;;31.55;33.96;101194.73;1693667;82;21608;-72
2022/09/07 08:33:56;;;;;;;8.25;3.15;;;;;;;30.48;33.62;101193.16;1685375;83;21436;-72
2022/09/07 08:36:41;;;;;;;2.90;2.42;;;;;;;29.87;33.67;101191.97;1660646;85;21316;-72
2022/09/07 08:39:25;;;;;;;3.50;2.80;;;;;;;29.31;33.37;101193.23;1693519;84;21706;-72
2022/09/07 08:42:58;;;;;;;4.62;2.22;;;;;;;28.46;33.37;101188.95;1689135;84;21079;-72
2022/09/07 08:45:50;;;;;;;6.62;2.33;;;;;;;27.71;33.46;101192.80;1693055;83;21653;-72
2022/09/07 08:48:37;;;;;;;10.70;2.05;;;;;;;27.04;33.02;101201.01;1675545;83;21120;-72
2022/09/07 08:51:30;;;;;;;4.15;2.12;;;;;;;25.90;32.30;101203.28;1665289;84;21149;-70
2022/09/07 08:54:16;;;;;;;5.40;2.70;;;;;;;24.83;32.71;101201.34;1664339;84;21084;-71
2022/09/07 08:57:03;;;;;;;7.95;2.35;;;;;;;24.36;32.74;101193.89;1694982;84;21078;-71
2022/09/07 09:00:12;;;;;;;9.13;2.10;;;;;;;23.94;32.69;101189.49;1693982;84;21107;-72
2022/09/07 09:02:58;;;;;;;4.53;1.98;;;;;;;23.75;32.70;101185.86;1693396;84;21419;-73
2022/09/07 09:06:17;;;;;;;9.40;1.87;;;;;;;23.59;32.61;101184.62;1691590;82;20984;-73
2022/09/07 09:09:35;;;;;;;5.05;2.15;;;;;;;23.35;32.61;101178.19;1692583;84;21087;-73
2022/09/07 09:12:34;;;;;;;8.48;2.12;;;;;;;23.14;32.64;101176.83;1693869;84;21062;-73
2022/09/07 09:15:31;;;;;;;4.60;2.05;;;;;;;22.96;32.62;101178.30;1693960;84;21083;-73
2022/09/07 09:18:59;;;;;;;5.85;2.08;;;;;;;22.82;32.62;101176.11;1690170;82;21056;-74
2022/09/07 09:21:45;;;;;;;6.83;2.20;;;;;;;22.61;32.69;101168.45;1691922;84;20980;-74
2022/09/07 09:24:36;;;;;;;6.28;2.05;;;;;;;22.55;32.66;101162.69;1686975;84;21088;-73
2022/09/07 09:27:20;;;;;;;6.75;1.95;;;;;;;22.45;32.72;101157.94;1693891;83;21315;-73
2022/09/07 09:30:16;;;;;;;9.65;1.77;;;;;;;22.41;32.78;101164.31;1694612;83;21016;-74
2022/09/07 09:33:25;;;;;;;2.67;1.85;;;;;;;22.38;32.84;101158.38;1688965;82;21443;-73
2022/09/07 09:36:24;;;;;;;3.08;2.05;;;;;;;22.39;32.86;101162.70;1692820;84;20969;-73
2022/09/07 09:39:32;;;;;;;5.03;1.50;;;;;;;22.34;32.94;101143.70;1692077;82;21527;-73
2022/09/07 09:42:24;;;;;;;4.90;1.62;;;;;;;22.30;32.93;101153.56;1692839;84;21044;-73
2022/09/07 09:45:19;;;;;;;5.53;1.72;;;;;;;22.16;32.86;101153.48;1694152;84;21035;-73
2022/09/07 09:48:10;;;;;;;4.15;1.80;;;;;;;22.02;32.81;101167.88;1699841;81;21044;-72
2022/09/07 09:50:58;;;;;;;3.90;1.67;;;;;;;21.77;32.89;101145.98;1694114;83;21044;-73
2022/09/07 09:53:57;;;;;;;3.50;1.80;;;;;;;21.70;33.03;101142.83;1692348;83;21083;-73
2022/09/07 09:56:45;;;;;;;2.95;1.32;;;;;;;21.69;33.03;101135.00;1693857;84;21137;-73
2022/09/07 09:59:32;;;;;;;3.98;1.72;;;;;;;21.65;33.08;101134.32;1693107;84;21505;-72
2022/09/07 10:02:32;;;;;;;2.22;1.60;;;;;;;21.68;33.17;101128.05;1677001;85;20918;-73
2022/09/07 10:05:36;;;;;;;6.45;1.77;;;;;;;21.72;33.23;101132.21;1685605;83;20933;-73
2022/09/07 10:08:28;;;;;;;5.30;1.80;;;;;;;21.73;33.33;101125.55;1681721;85;21497;-73
2022/09/07 10:11:14;;;;;;;9.50;2.02;;;;;;;21.80;33.35;101124.75;1677628;85;21389;-73
2022/09/07 10:13:59;;;;;;;3.87;1.83;;;;;;;21.85;33.36;101127.09;1682625;84;21610;-73
2022/09/07 10:16:45;;;;;;;8.60;1.60;;;;;;;21.77;33.37;101113.06;1695133;83;21009;-72
2022/09/07 10:19:37;;;;;;;1.65;1.40;;;;;;;21.70;33.35;101108.60;1694451;84;21416;-73
2022/09/07 10:22:33;;;;;;;4.45;1.47;;;;;;;21.61;33.40;101108.25;1688503;84;20938;-73
2022/09/07 10:25:32;;;;;;;3.45;1.75;;;;;;;21.52;33.44;101119.27;1678789;83;20892;-73
2022/09/07 10:28:21;;;;;;;3.40;1.55;;;;;;;21.46;33.56;101114.72;1698227;82;20902;-74
2022/09/07 10:31:26;;;;;;;4.67;1.57;;;;;;;21.58;33.62;101100.05;1690778;83;21162;-73
2022/09/07 10:34:35;;;;;;;5.15;1.60;;;;;;;21.70;33.69;101101.17;1686595;83;21068;-73
2022/09/07 10:37:42;;;;;;;2.45;1.77;;;;;;;21.80;33.70;101110.27;1643861;84;21634;-73
2022/09/07 10:40:38;;;;;;;3.80;1.70;;;;;;;21.78;33.66;101110.81;1688571;83;21115;-73
2022/09/07 10:43:48;;;;;;;7.58;1.50;;;;;;;21.83;33.72;101103.52;1686020;83;21036;-73
2022/09/07 10:46:57;;;;;;;2.92;1.60;;;;;;;21.84;33.67;101103.02;1683664;84;21052;-73
2022/09/07 10:50:02;;;;;;;2.62;1.50;;;;;;;21.80;33.74;101090.52;1685252;83;21432;-73
2022/09/07 10:53:08;;;;;;;2.27;1.50;;;;;;;21.91;33.73;101085.95;1688842;83;21040;-73
2022/09/07 10:56:01;;;;;;;4.42;1.50;;;;;;;21.96;33.81;101079.49;1682365;84;21081;-74
2022/09/07 10:59:06;;;;;;;3.00;1.47;;;;;;;22.04;33.84;101087.84;1666813;83;21036;-73
2022/09/07 11:02:01;;;;;;;3.83;1.30;;;;;;;22.13;33.88;101093.91;1683240;84;21119;-73
2022/09/07 11:05:25;;;;;;;2.95;1.80;;;;;;;22.24;33.95;101089.36;1685110;84;21528;-73
2022/09/07 11:08:48;;;;;;;2.45;1.32;;;;;;;22.37;33.99;101090.33;1686098;84;21838;-73
2022/09/07 11:11:48;;;;;;;4.78;1.25;;;;;;;22.48;34.01;101083.12;1687352;84;21051;-73
2022/09/07 11:14:44;;;;;;;7.62;1.20;;;;;;;22.57;34.05;101089.64;1689233;84;21084;-74
2022/09/07 11:17:29;;;;;;;;;;;;;;;22.55;33.90;101091.05;1688258;84;22334;-73
2022/09/07 11:20:19;;;;;;;2.77;1.35;;;;;;;22.60;34.02;101100.02;1691653;84;20451;-73
2022/09/07 11:23:37;;;;;;;8.95;1.30;;;;;;;22.66;34.00;101103.61;1691813;83;21142;-73
2022/09/07 11:26:33;;;;;;;1.47;1.37;;;;;;;22.68;33.93;101099.09;1690749;84;21076;-73
2022/09/07 11:29:26;;;;;;;2.85;1.20;;;;;;;22.71;33.96;101096.28;1690553;84;21076;-74
2022/09/07 11:32:25;;;;;;;3.83;1.10;;;;;;;22.66;33.92;101095.70;1673226;85;21108;-73
2022/09/07 11:35:18;;;;;;;2.75;1.40;;;;;;;22.56;33.88;101084.84;1682177;85;21286;-73
2022/09/07 11:38:21;;;;;;;2.67;1.70;;;;;;;22.52;33.52;101088.59;1662114;85;21132;-73
2022/09/07 11:41:23;;;;;;;2.52;1.20;;;;;;;22.38;33.75;101086.75;1675850;85;21049;-73
2022/09/07 11:44:38;;;;;;;1.40;1.02;;;;;;;22.33;33.80;101073.49;1678391;85;21084;-73
2022/09/07 11:47:31;;;;;;;4.05;1.20;;;;;;;22.35;33.86;101072.94;1680816;85;21596;-72
2022/09/07 11:50:22;;;;;;;2.47;1.12;;;;;;;22.34;33.84;101072.09;1661577;83;21096;-73
2022/09/07 11:53:15;;;;;;;3.17;1.32;;;;;;;22.32;33.75;101068.69;1681423;83;21127;-73
2022/09/07 11:56:15;;;;;;;1.90;1.02;;;;;;;22.23;33.73;101067.91;1680528;83;21101;-73
2022/09/07 12:02:19;;;;;;;3.65;1.20;;;;;;;22.17;33.78;101062.98;1661102;82;21424;-92
2022/09/07 12:05:37;;;;;;;1.42;1.10;;;;;;;22.07;33.74;101064.44;1626541;85;21420;-92
2022/09/07 12:08:46;;;;;;;5.92;1.20;;;;;;;21.94;33.79;101065.56;1696876;84;21576;-92
2022/09/07 12:12:04;;;;;;;3.77;1.32;;;;;;;21.82;33.74;101054.42;1687787;82;21017;-91
2022/09/07 12:15:23;;;;;;;3.08;1.20;;;;;;;21.82;33.86;101051.80;1595619;87;21094;-91
2022/09/07 12:18:29;;;;;;;4.15;1.15;;;;;;;21.85;33.81;101050.74;1633938;85;21139;-91
2022/09/07 12:21:53;;;;;;;9.00;1.20;;;;;;;21.86;33.79;101035.33;1626810;85;21168;-91
2022/09/07 12:24:53;;;;;;;3.40;1.00;;;;;;;21.97;33.92;101038.20;1607051;87;21205;-91
2022/09/07 12:27:40;;;;;;;1.35;0.95;;;;;;;22.04;33.76;101029.06;1610943;85;21366;-91
2022/09/07 12:30:31;;;;;;;4.87;1.30;;;;;;;22.09;33.75;101023.06;1596087;87;21167;-91
2022/09/07 12:33:23;;;;;;;2.85;0.95;;;;;;;22.14;33.53;101027.59;1627307;86;21160;-91
2022/09/07 12:36:33;;;;;;;2.70;1.00;;;;;;;22.20;33.65;101023.76;1622559;85;21107;-91
2022/09/07 12:39:29;;;;;;;7.17;1.10;;;;;;;22.24;33.76;101031.40;1615124;86;21158;-91
2022/09/07 12:42:25;;;;;;;11.45;1.60;;;;;;;22.28;33.79;101027.65;1571827;87;21631;-91
2022/09/07 12:45:33;;;;;;;3.25;1.50;;;;;;;22.32;33.79;101034.91;1605310;87;21131;-92
2022/09/07 12:48:30;;;;;;;2.40;1.30;;;;;;;22.34;33.70;101029.93;1601165;87;21122;-91
2022/09/07 12:51:27;;;;;;;3.58;1.20;;;;;;;22.36;33.75;101031.13;1655314;83;21128;-91
2022/09/07 12:54:23;;;;;;;8.90;1.67;;;;;;;22.36;33.73;101020.11;1660511;83;21086;-91
2022/09/07 12:57:47;;;;;;;5.78;1.30;;;;;;;22.38;33.71;101016.92;1691235;83;21415;-92
2022/09/07 13:00:59;;;;;;;1.67;1.00;;;;;;;22.43;33.79;101015.34;1653132;83;21524;-91
2022/09/07 13:03:53;;;;;;;5.95;1.10;;;;;;;22.49;33.82;101015.45;1698341;83;21042;-92
2022/09/07 13:06:56;;;;;;;4.33;1.15;;;;;;;22.55;33.65;101011.13;1682942;83;21077;-92
2022/09/07 13:09:44;;;;;;;4.78;1.55;;;;;;;22.52;33.66;100998.98;1663418;83;22131;-92
2022/09/07 13:12:45;;;;;;;6.58;0.93;;;;;;;22.51;33.56;100999.92;1658345;82;21120;-91
2022/09/07 13:16:15;;;;;;;2.60;1.22;;;;;;;22.48;33.58;100995.30;1693245;83;21010;-91
2022/09/07 13:19:02;;;;;;;3.60;0.90;;;;;;;22.46;33.62;100992.75;1690921;83;21064;-92
2022/09/07 13:21:48;;;;;;;5.10;1.30;;;;;;;22.39;33.55;101003.28;1663507;84;21145;-92
2022/09/07 13:24:38;;;;;;;2.75;1.00;;;;;;;22.27;33.66;100969.31;1659065;83;21143;-91
2022/09/07 13:27:45;;;;;;;8.45;1.20;;;;;;;22.27;33.66;100969.31;1686088;83;21103;-91
2022/09/07 13:31:01;;;;;;;2.65;1.20;;;;;;;22.40;33.56;100986.53;1694230;83;21042;-91